Time;durP1;ratioP1;P1;durP2;ratioP2;P2;SDS_P1;SDS_P2;PMS_P1;PMS_P2;Temp;Humidity;BMP_temperature;BMP_pressure;BME280_temperature;BME280_humidity;BME280_pressure;Samples;Min_cycle;Max_cycle;Signal;HPM_P1;HPM_P2
2022/12/28 00:01:10;;;;;;;9.73;2.73;;;6.50;99.90;;;;;;5025158;28;20457;-84
2022/12/28 00:03:37;;;;;;;6.40;2.70;;;6.50;99.90;;;;;;5026511;28;20541;-85
2022/12/28 00:06:05;;;;;;;9.97;3.47;;;6.60;99.90;;;;;;5025367;28;21104;-85
2022/12/28 00:08:31;;;;;;;10.43;3.20;;;6.60;99.90;;;;;;5025664;28;21189;-85
2022/12/28 00:11:02;;;;;;;8.00;2.73;;;6.70;99.90;;;;;;5024905;28;20453;-84
2022/12/28 00:13:30;;;;;;;5.83;3.27;;;6.70;99.90;;;;;;5025791;28;20902;-84
2022/12/28 00:15:57;;;;;;;7.83;2.83;;;6.70;99.90;;;;;;5025096;28;20473;-84
2022/12/28 00:18:28;;;;;;;6.93;3.47;;;6.60;99.90;;;;;;5022296;28;20458;-83
2022/12/28 00:20:58;;;;;;;9.20;2.43;;;6.50;99.90;;;;;;5022625;28;20532;-84
2022/12/28 00:23:25;;;;;;;12.00;4.43;;;6.40;99.90;;;;;;5021709;28;20487;-83
2022/12/28 00:25:52;;;;;;;7.67;3.23;;;6.40;99.90;;;;;;5022158;28;20448;-83
2022/12/28 00:28:19;;;;;;;9.20;3.70;;;6.30;99.90;;;;;;5033299;28;20539;-83
2022/12/28 00:30:46;;;;;;;7.27;3.80;;;6.30;99.90;;;;;;5023849;28;20461;-83
2022/12/28 00:33:14;;;;;;;7.10;3.37;;;6.10;99.90;;;;;;5021545;28;20509;-83
2022/12/28 00:35:42;;;;;;;4.60;3.03;;;6.20;99.90;;;;;;5021499;28;20571;-83
2022/12/28 00:38:09;;;;;;;12.20;4.60;;;6.20;99.90;;;;;;5022119;28;21019;-83
2022/12/28 00:40:36;;;;;;;8.83;3.80;;;6.20;99.90;;;;;;5021803;28;20805;-83
2022/12/28 00:43:02;;;;;;;6.57;3.67;;;6.20;99.90;;;;;;5021790;28;20473;-83
2022/12/28 00:45:29;;;;;;;14.33;5.93;;;6.30;99.90;;;;;;5022022;28;20460;-83
2022/12/28 00:47:56;;;;;;;8.50;6.13;;;6.30;99.90;;;;;;5021823;28;20500;-84
2022/12/28 00:50:23;;;;;;;10.70;7.13;;;6.40;99.90;;;;;;5020917;28;20545;-84
2022/12/28 00:52:51;;;;;;;8.77;6.60;;;6.50;99.90;;;;;;5021762;28;20454;-83
2022/12/28 00:55:18;;;;;;;15.40;9.03;;;6.50;99.90;;;;;;5021040;28;20540;-83
2022/12/28 00:57:44;;;;;;;8.87;7.83;;;6.50;99.90;;;;;;5021218;28;20816;-84
2022/12/28 01:00:13;;;;;;;10.77;9.97;;;6.40;99.90;;;;;;5020550;28;20453;-83
2022/12/28 01:02:39;;;;;;;13.30;12.20;;;6.40;99.90;;;;;;5021400;28;20973;-83
2022/12/28 01:05:07;;;;;;;15.53;14.17;;;6.50;99.90;;;;;;5021708;28;20522;-83
2022/12/28 01:07:34;;;;;;;13.57;12.07;;;6.40;99.90;;;;;;5021673;28;20457;-83
2022/12/28 01:10:02;;;;;;;13.30;10.57;;;6.50;99.90;;;;;;5020822;28;20456;-83
2022/12/28 01:12:29;;;;;;;16.10;7.43;;;6.50;99.90;;;;;;5020828;28;20487;-83
2022/12/28 01:14:56;;;;;;;7.07;5.20;;;6.70;99.90;;;;;;5020328;28;20469;-83
2022/12/28 01:17:23;;;;;;;6.60;6.00;;;6.70;99.90;;;;;;5020713;28;20457;-83
2022/12/28 01:19:49;;;;;;;12.60;5.60;;;6.70;99.90;;;;;;5020022;28;20459;-84
2022/12/28 01:22:16;;;;;;;13.03;6.37;;;6.70;99.90;;;;;;5020245;28;20809;-83
2022/12/28 01:24:43;;;;;;;6.20;4.57;;;6.70;99.90;;;;;;5020345;28;20816;-83
2022/12/28 01:27:11;;;;;;;15.70;7.27;;;6.70;99.90;;;;;;5021272;28;20461;-82
2022/12/28 01:29:38;;;;;;;13.23;8.13;;;6.80;99.90;;;;;;5020397;28;20483;-83
2022/12/28 01:32:05;;;;;;;5.37;4.40;;;6.70;99.90;;;;;;5019563;28;20487;-83
2022/12/28 01:34:32;;;;;;;8.80;6.90;;;6.80;99.90;;;;;;5019907;28;20492;-84
2022/12/28 01:36:58;;;;;;;8.50;5.60;;;6.90;99.90;;;;;;5020340;28;20477;-85
2022/12/28 01:39:25;;;;;;;6.87;6.27;;;7.00;99.90;;;;;;5020181;28;20521;-82
2022/12/28 01:41:53;;;;;;;9.70;7.10;;;7.00;99.90;;;;;;5020032;28;20453;-83
2022/12/28 01:44:47;;;;;;;7.97;7.17;;;7.00;99.90;;;;;;5019848;28;20469;-83
2022/12/28 01:47:17;;;;;;;14.00;7.73;;;7.10;99.90;;;;;;5010334;28;20528;-84
2022/12/28 01:50:00;;;;;;;7.10;6.27;;;7.30;99.90;;;;;;5020834;28;20449;-83
2022/12/28 01:52:33;;;;;;;7.60;5.47;;;7.30;99.90;;;;;;5020063;28;20452;-84
2022/12/28 01:55:07;;;;;;;7.10;5.60;;;7.20;99.90;;;;;;5019498;28;20453;-83
2022/12/28 01:57:39;;;;;;;8.47;6.07;;;7.30;99.90;;;;;;5019855;28;20457;-84
2022/12/28 02:00:11;;;;;;;12.40;6.47;;;7.30;99.90;;;;;;5020421;28;20456;-83
2022/12/28 02:02:40;;;;;;;7.73;5.47;;;7.30;99.90;;;;;;5019728;28;20958;-83
2022/12/28 02:05:08;;;;;;;5.70;5.10;;;7.30;99.90;;;;;;5020846;28;20545;-84
2022/12/28 02:07:43;;;;;;;7.57;4.90;;;7.30;99.90;;;;;;5020034;28;20460;-83
2022/12/28 02:10:12;;;;;;;7.80;4.80;;;7.40;99.90;;;;;;5020389;28;20463;-83
2022/12/28 02:12:39;;;;;;;9.60;5.57;;;7.30;99.90;;;;;;5020274;28;20473;-82
2022/12/28 02:15:08;;;;;;;7.40;5.17;;;7.40;99.90;;;;;;5020858;28;20472;-83
2022/12/28 02:17:35;;;;;;;6.47;4.13;;;7.30;99.90;;;;;;5020514;28;20496;-84
2022/12/28 02:20:03;;;;;;;10.37;3.93;;;7.40;99.90;;;;;;5020388;28;20452;-84
2022/12/28 02:23:18;;;;;;;5.77;3.70;;;7.30;99.90;;;;;;5020588;28;20464;-84
2022/12/28 02:26:07;;;;;;;4.10;3.20;;;7.40;99.90;;;;;;5000777;28;21070;-83
2022/12/28 02:29:17;;;;;;;7.50;3.33;;;7.50;99.90;;;;;;5010098;28;20456;-83
2022/12/28 02:31:50;;;;;;;6.33;3.17;;;7.40;99.90;;;;;;5021325;28;20491;-83
2022/12/28 02:34:24;;;;;;;4.00;3.53;;;7.30;99.90;;;;;;5021177;28;20504;-85
2022/12/28 02:36:59;;;;;;;4.87;3.33;;;7.30;99.90;;;;;;5025030;28;20495;-83
2022/12/28 02:39:36;;;;;;;4.73;3.60;;;7.30;99.90;;;;;;5024168;28;20445;-84
2022/12/28 02:42:05;;;;;;;5.00;3.80;;;7.30;99.90;;;;;;5024772;28;20544;-84
2022/12/28 02:50:06;;;;;;;5.23;3.90;;;7.40;99.90;;;;;;5013907;28;20456;-83
2022/12/28 02:52:53;;;;;;;7.60;4.00;;;7.30;99.90;;;;;;5023968;28;20575;-84
2022/12/28 02:58:53;;;;;;;4.20;3.60;;;7.40;99.90;;;;;;5010962;28;21147;-83
2022/12/28 03:01:33;;;;;;;4.57;3.43;;;7.50;99.90;;;;;;5013069;28;20457;-83
2022/12/28 03:04:12;;;;;;;4.93;3.57;;;7.50;99.90;;;;;;5023462;28;20473;-83
2022/12/28 03:09:33;;;;;;;3.60;3.07;;;7.40;99.90;;;;;;5023635;28;20444;-84
2022/12/28 03:12:06;;;;;;;4.43;3.13;;;7.60;99.90;;;;;;5022937;28;20456;-83
2022/12/28 03:14:39;;;;;;;5.73;3.03;;;7.60;99.90;;;;;;5023183;28;20472;-83
2022/12/28 03:31:12;;;;;;;4.50;2.70;;;7.90;99.90;;;;;;5022574;28;20540;-84
2022/12/28 03:33:44;;;;;;;4.23;2.27;;;7.90;99.90;;;;;;5022728;28;20535;-85
2022/12/28 03:36:16;;;;;;;5.13;2.13;;;7.90;99.90;;;;;;5024440;28;21061;-83
2022/12/28 03:38:50;;;;;;;4.50;2.07;;;8.00;99.90;;;;;;5023127;28;20536;-84
2022/12/28 03:41:35;;;;;;;4.23;1.77;;;8.00;99.90;;;;;;5023454;28;20535;-85
2022/12/28 03:44:09;;;;;;;4.43;2.13;;;8.10;99.90;;;;;;5023438;28;20473;-84
2022/12/28 03:46:43;;;;;;;4.00;1.83;;;8.10;99.90;;;;;;5023015;28;20441;-83
2022/12/28 03:49:12;;;;;;;3.73;2.00;;;8.30;99.90;;;;;;5021951;28;20453;-83
2022/12/28 03:51:41;;;;;;;6.63;2.43;;;8.20;99.90;;;;;;5021591;28;20544;-83
2022/12/28 03:54:08;;;;;;;4.00;1.77;;;8.20;99.90;;;;;;5021167;28;20982;-83
2022/12/28 03:56:34;;;;;;;5.23;1.90;;;8.30;99.90;;;;;;5022566;28;20480;-80
2022/12/28 03:59:01;;;;;;;4.27;1.90;;;8.40;99.90;;;;;;5024091;28;20445;-84
2022/12/28 04:04:29;;;;;;;3.27;1.37;;;8.40;99.90;;;;;;5021777;28;20496;-85
2022/12/28 04:06:57;;;;;;;4.40;1.50;;;8.40;99.90;;;;;;5021560;28;20445;-85
2022/12/28 04:09:37;;;;;;;5.50;2.73;;;8.40;99.90;;;;;;5011647;28;20451;-87
2022/12/28 04:12:08;;;;;;;4.10;2.07;;;8.50;99.90;;;;;;5019154;28;20453;-83
2022/12/28 04:14:37;;;;;;;6.20;2.63;;;8.50;99.90;;;;;;5000493;28;20542;-84
2022/12/28 04:17:04;;;;;;;5.17;1.77;;;8.40;99.90;;;;;;5000346;28;20566;-83
2022/12/28 04:19:33;;;;;;;4.90;1.93;;;8.60;99.90;;;;;;4999748;28;20970;-85
2022/12/28 04:21:59;;;;;;;5.90;2.23;;;8.60;99.90;;;;;;5000921;28;20540;-85
2022/12/28 04:24:58;;;;;;;4.80;2.20;;;8.70;99.90;;;;;;4999660;28;20501;-86
2022/12/28 04:27:28;;;;;;;4.47;1.80;;;8.70;99.90;;;;;;5004623;28;20450;-85
2022/12/28 04:29:55;;;;;;;4.57;2.13;;;8.70;99.90;;;;;;5002891;28;20465;-85
2022/12/28 04:32:22;;;;;;;4.33;1.93;;;8.60;99.90;;;;;;5002189;28;20450;-85
2022/12/28 04:34:55;;;;;;;4.80;2.00;;;8.60;99.90;;;;;;5000764;28;21068;-85
2022/12/28 04:37:24;;;;;;;7.17;2.20;;;8.60;99.90;;;;;;4998660;28;20532;-85
2022/12/28 04:39:50;;;;;;;6.03;2.60;;;8.70;99.90;;;;;;5005863;28;20482;-84
2022/12/28 04:42:19;;;;;;;4.83;2.23;;;8.80;99.90;;;;;;5003644;28;20977;-84
2022/12/28 04:44:46;;;;;;;17.40;6.90;;;8.90;99.90;;;;;;5000227;28;20469;-85
2022/12/28 04:47:24;;;;;;;5.93;2.60;;;9.00;99.90;;;;;;5000345;28;20530;-84
2022/12/28 04:49:54;;;;;;;4.43;2.20;;;9.00;99.90;;;;;;5003637;28;20458;-85
2022/12/28 04:52:21;;;;;;;6.57;1.77;;;8.90;99.90;;;;;;5021215;28;20463;-85
2022/12/28 04:54:50;;;;;;;5.67;1.83;;;9.00;99.90;;;;;;5018744;28;20524;-85
2022/12/28 04:57:16;;;;;;;6.20;2.90;;;9.00;99.90;;;;;;5017082;28;20533;-85
2022/12/28 04:59:43;;;;;;;4.90;1.93;;;9.10;99.90;;;;;;5018180;28;20460;-85
2022/12/28 05:02:17;;;;;;;4.33;1.67;;;9.10;99.90;;;;;;5018731;28;20479;-86
2022/12/28 05:04:43;;;;;;;6.93;1.97;;;9.10;99.90;;;;;;5016529;28;20465;-84
2022/12/28 05:07:12;;;;;;;6.83;2.00;;;9.10;99.90;;;;;;5017923;28;20449;-85
2022/12/28 05:09:39;;;;;;;9.20;2.30;;;9.20;99.90;;;;;;5016788;28;20896;-84
2022/12/28 05:12:06;;;;;;;6.00;2.00;;;9.20;99.90;;;;;;5016491;28;20994;-85
2022/12/28 05:14:33;;;;;;;5.50;1.80;;;9.20;99.90;;;;;;5016334;28;20516;-85
2022/12/28 05:16:59;;;;;;;4.40;1.70;;;9.20;99.90;;;;;;5017721;28;20569;-85
2022/12/28 05:19:26;;;;;;;6.10;1.70;;;9.10;99.90;;;;;;5016559;28;20525;-85
2022/12/28 05:21:53;;;;;;;5.60;1.80;;;9.30;99.90;;;;;;5018109;28;20509;-85
2022/12/28 05:24:24;;;;;;;6.00;1.70;;;9.30;99.90;;;;;;5017613;28;20552;-85
2022/12/28 05:26:51;;;;;;;4.73;1.90;;;9.30;99.90;;;;;;5017303;28;20480;-85
2022/12/28 05:29:18;;;;;;;4.93;1.97;;;9.40;99.90;;;;;;5020163;28;20450;-85
2022/12/28 05:31:45;;;;;;;4.73;1.60;;;9.30;99.90;;;;;;5017896;28;21039;-85
2022/12/28 05:34:15;;;;;;;6.97;1.93;;;9.40;99.90;;;;;;5019687;28;21082;-85
2022/12/28 05:36:45;;;;;;;4.17;1.90;;;9.40;99.90;;;;;;5017971;28;21044;-85
2022/12/28 05:39:12;;;;;;;7.73;2.20;;;9.40;99.90;;;;;;5020078;28;20548;-85
2022/12/28 05:41:43;;;;;;;7.00;1.77;;;9.40;99.90;;;;;;5019716;28;20492;-85
2022/12/28 05:44:10;;;;;;;5.80;1.77;;;9.50;99.90;;;;;;5017361;28;20477;-85
2022/12/28 05:46:37;;;;;;;4.87;1.73;;;9.50;99.90;;;;;;5019017;28;20480;-85
2022/12/28 05:49:11;;;;;;;5.50;2.30;;;9.50;99.90;;;;;;5018310;28;20961;-85
2022/12/28 05:51:41;;;;;;;4.10;1.70;;;9.50;99.90;;;;;;5017676;28;20461;-85
2022/12/28 05:54:07;;;;;;;5.13;1.60;;;9.50;99.90;;;;;;5016561;28;20540;-85
2022/12/28 05:56:35;;;;;;;4.40;1.73;;;9.60;99.90;;;;;;5018916;28;20473;-85
2022/12/28 05:59:05;;;;;;;4.77;1.40;;;9.60;99.90;;;;;;5017021;28;20891;-85
2022/12/28 06:01:34;;;;;;;4.20;1.53;;;9.60;99.90;;;;;;5017224;28;20545;-85
2022/12/28 06:04:05;;;;;;;5.60;1.87;;;9.60;99.90;;;;;;5016670;28;20469;-84
2022/12/28 06:06:34;;;;;;;4.20;1.80;;;9.70;99.90;;;;;;5019532;28;20473;-84
2022/12/28 06:09:03;;;;;;;5.53;1.80;;;9.60;99.90;;;;;;5019587;28;20475;-85
2022/12/28 06:11:31;;;;;;;7.10;1.87;;;9.60;99.90;;;;;;5024860;28;20460;-85
2022/12/28 06:14:04;;;;;;;4.73;1.63;;;9.60;99.90;;;;;;5026368;28;20470;-86
2022/12/28 06:16:40;;;;;;;5.43;1.80;;;9.60;99.90;;;;;;5027258;28;20853;-85
2022/12/28 06:19:09;;;;;;;5.30;1.80;;;9.60;99.90;;;;;;5025680;28;20873;-84
2022/12/28 06:21:38;;;;;;;4.90;1.70;;;9.50;99.90;;;;;;5022453;28;20488;-85
2022/12/28 06:24:09;;;;;;;5.10;1.90;;;9.50;99.90;;;;;;5023386;28;20504;-84
2022/12/28 06:26:37;;;;;;;4.20;1.67;;;9.50;99.90;;;;;;5022572;28;20488;-84
2022/12/28 06:30:12;;;;;;;3.90;1.53;;;9.60;99.90;;;;;;5023202;28;20838;-84
2022/12/28 06:35:12;;;;;;;3.97;1.53;;;9.50;99.90;;;;;;5041393;28;20458;-84
2022/12/28 06:37:38;;;;;;;3.77;1.43;;;9.50;99.90;;;;;;5044098;28;20471;-84
2022/12/28 06:40:06;;;;;;;4.53;2.13;;;9.50;99.90;;;;;;5027315;28;20456;-83
2022/12/28 06:42:33;;;;;;;3.33;1.20;;;9.50;99.90;;;;;;5025569;28;20834;-84
2022/12/28 06:45:00;;;;;;;4.70;1.67;;;9.60;99.90;;;;;;5015507;28;20588;-85
2022/12/28 06:47:41;;;;;;;4.67;1.73;;;9.60;99.90;;;;;;5017268;28;20797;-83
2022/12/28 06:50:09;;;;;;;5.90;1.97;;;9.50;99.90;;;;;;5020463;28;20484;-84
2022/12/28 06:52:37;;;;;;;5.47;2.00;;;9.50;99.90;;;;;;5010249;28;20462;-83
2022/12/28 06:55:04;;;;;;;5.33;2.10;;;9.50;99.90;;;;;;5024525;28;20448;-84
2022/12/28 06:57:31;;;;;;;7.10;2.00;;;9.60;99.90;;;;;;5013379;28;20560;-85
2022/12/28 07:00:46;;;;;;;5.00;1.90;;;9.50;99.90;;;;;;5004366;28;20464;-83
2022/12/28 07:03:43;;;;;;;4.07;1.80;;;9.50;99.90;;;;;;4938591;28;20943;-84
2022/12/28 07:06:10;;;;;;;4.23;1.70;;;9.50;99.90;;;;;;5010519;28;20525;-84
2022/12/28 07:08:39;;;;;;;6.50;1.83;;;9.50;99.90;;;;;;5014162;28;20450;-84
2022/12/28 07:11:27;;;;;;;3.60;1.47;;;9.40;99.90;;;;;;5011668;28;20447;-84
2022/12/28 07:14:03;;;;;;;4.43;1.50;;;9.50;99.90;;;;;;5018034;28;20476;-83
2022/12/28 07:16:30;;;;;;;4.90;1.43;;;9.50;99.90;;;;;;5022861;28;20476;-83
2022/12/28 07:19:06;;;;;;;5.27;1.80;;;9.30;99.90;;;;;;5021652;28;20449;-83
2022/12/28 07:21:35;;;;;;;3.30;1.50;;;9.30;99.90;;;;;;5023059;28;20456;-84
2022/12/28 07:24:20;;;;;;;10.30;1.80;;;9.30;99.90;;;;;;5022428;28;20469;-83
2022/12/28 07:26:48;;;;;;;4.83;2.20;;;9.10;99.90;;;;;;5004688;28;20474;-84
2022/12/28 07:29:46;;;;;;;3.57;1.57;;;9.20;99.90;;;;;;5010484;28;20442;-83
2022/12/28 07:38:31;;;;;;;5.27;2.07;;;9.40;99.90;;;;;;4954375;28;20496;-89
2022/12/28 07:41:03;;;;;;;6.30;2.83;;;9.40;99.90;;;;;;5012056;28;20459;-84
2022/12/28 07:43:30;;;;;;;3.90;1.63;;;9.40;99.90;;;;;;5032449;28;20475;-83
2022/12/28 07:46:01;;;;;;;5.97;2.00;;;9.40;99.90;;;;;;5021635;28;20887;-84
2022/12/28 07:48:29;;;;;;;4.60;1.60;;;9.50;99.90;;;;;;5019950;28;20472;-83
2022/12/28 07:51:24;;;;;;;5.93;2.10;;;9.50;99.90;;;;;;5020546;28;20499;-86
2022/12/28 07:54:12;;;;;;;5.20;1.90;;;9.70;99.90;;;;;;5015364;28;20567;-84
2022/12/28 07:56:40;;;;;;;3.87;1.50;;;9.50;99.90;;;;;;5018664;28;20488;-84
2022/12/28 08:02:38;;;;;;;3.77;1.50;;;9.60;99.90;;;;;;5012802;28;20464;-84
2022/12/28 08:05:53;;;;;;;5.90;1.47;;;9.60;99.90;;;;;;4982642;28;20455;-83
2022/12/28 08:08:41;;;;;;;3.80;1.30;;;9.60;99.90;;;;;;4937282;29;20464;-84
2022/12/28 08:11:27;;;;;;;3.00;1.20;;;9.70;99.90;;;;;;4884998;29;20543;-83
2022/12/28 08:14:26;;;;;;;3.20;1.10;;;9.70;99.90;;;;;;5018591;28;20464;-84
2022/12/28 08:17:24;;;;;;;5.80;1.23;;;9.70;99.90;;;;;;5019459;28;20484;-84
2022/12/28 08:19:51;;;;;;;3.00;0.97;;;9.80;99.90;;;;;;4981111;28;20447;-85
2022/12/28 08:25:52;;;;;;;3.80;1.87;;;10.00;99.90;;;;;;4904421;29;20471;-84
2022/12/28 08:28:54;;;;;;;7.17;1.30;;;9.90;99.90;;;;;;4925252;29;20457;-84
2022/12/28 08:31:59;;;;;;;3.93;1.17;;;10.00;99.90;;;;;;4928928;29;20456;-84
2022/12/28 08:37:43;;;;;;;4.10;1.23;;;10.00;99.90;;;;;;4984457;28;20472;-84
2022/12/28 08:40:11;;;;;;;4.33;1.30;;;10.10;99.90;;;;;;5025500;28;20449;-84
2022/12/28 08:42:38;;;;;;;3.97;1.27;;;10.10;99.90;;;;;;5023111;28;20523;-85
2022/12/28 08:45:14;;;;;;;6.07;1.20;;;10.20;99.90;;;;;;5023598;28;20460;-84
2022/12/28 08:47:41;;;;;;;4.53;1.33;;;10.10;99.90;;;;;;5021992;28;20460;-85
2022/12/28 08:50:11;;;;;;;4.80;1.23;;;10.20;99.90;;;;;;5020322;28;20457;-83
2022/12/28 08:52:38;;;;;;;4.05;1.27;;;10.30;99.90;;;;;;5020625;28;20514;-83
2022/12/28 08:55:06;;;;;;;5.20;1.47;;;10.30;99.90;;;;;;5021448;28;20199;-84
2022/12/28 08:57:33;;;;;;;3.50;1.13;;;10.20;99.90;;;;;;5022225;28;20476;-83
2022/12/28 09:00:00;;;;;;;3.53;1.30;;;10.30;99.90;;;;;;5021718;28;20542;-84
2022/12/28 09:02:27;;;;;;;4.17;1.23;;;10.30;99.90;;;;;;5020582;28;20544;-84
2022/12/28 09:04:54;;;;;;;3.97;1.47;;;10.40;99.90;;;;;;5020598;28;20473;-84
2022/12/28 09:07:20;;;;;;;3.70;1.30;;;10.30;99.90;;;;;;5021240;28;20441;-84
2022/12/28 09:10:45;;;;;;;19.23;2.03;;;10.40;99.90;;;;;;5020750;28;20911;-84
2022/12/28 09:13:14;;;;;;;4.73;1.43;;;10.40;99.90;;;;;;5020456;28;20473;-85
2022/12/28 09:39:52;;;;;;;3.43;1.07;;;10.60;99.90;;;;;;4910001;29;20534;-84
2022/12/28 09:47:18;;;;;;;;;;;;;;;;;;;;;
2022/12/28 09:50:27;;;;;;;3.70;1.13;;;10.80;99.90;;;;;;4954286;28;20656;-84
2022/12/28 09:55:53;;;;;;;4.57;1.40;;;10.80;99.90;;;;;;5057764;28;20462;-84
2022/12/28 09:58:21;;;;;;;4.90;1.07;;;10.90;99.90;;;;;;5058413;28;20919;-87
2022/12/28 10:01:14;;;;;;;4.60;1.20;;;10.80;99.90;;;;;;5059977;28;20455;-84
2022/12/28 10:03:42;;;;;;;4.63;1.53;;;10.90;99.90;;;;;;5043796;28;20845;-83
2022/12/28 10:06:24;;;;;;;3.60;1.20;;;11.00;99.90;;;;;;5039458;28;20474;-84
2022/12/28 10:08:53;;;;;;;4.80;1.30;;;11.00;99.90;;;;;;5040865;28;20444;-83
2022/12/28 10:11:24;;;;;;;8.53;1.23;;;10.90;99.90;;;;;;5039901;28;20528;-84
2022/12/28 10:13:57;;;;;;;3.90;1.07;;;10.90;99.90;;;;;;5040405;28;20501;-83
2022/12/28 10:16:28;;;;;;;5.57;1.30;;;11.00;99.90;;;;;;5039856;28;20984;-84
2022/12/28 10:18:55;;;;;;;5.00;1.30;;;11.10;99.90;;;;;;5039766;28;20992;-84
2022/12/28 10:21:24;;;;;;;4.37;1.43;;;11.10;99.90;;;;;;5039396;28;20456;-84
2022/12/28 10:23:54;;;;;;;4.10;1.17;;;11.00;99.90;;;;;;5038285;28;20477;-84
2022/12/28 10:26:22;;;;;;;6.40;1.27;;;11.10;99.90;;;;;;5039453;28;20535;-83
2022/12/28 10:28:53;;;;;;;4.07;1.00;;;11.30;99.90;;;;;;5040178;28;20456;-84
2022/12/28 10:32:12;;;;;;;4.03;1.30;;;11.30;99.90;;;;;;5039909;28;20535;-83
2022/12/28 10:34:53;;;;;;;4.80;1.20;;;11.30;99.90;;;;;;4997841;28;20501;-84
2022/12/28 10:37:44;;;;;;;3.50;1.20;;;11.30;99.90;;;;;;5006227;28;20456;-85
2022/12/28 10:40:20;;;;;;;3.40;1.10;;;11.30;99.90;;;;;;5039213;28;20440;-84
2022/12/28 10:43:18;;;;;;;4.27;1.00;;;11.40;99.90;;;;;;5040091;28;20458;-83
2022/12/28 10:45:48;;;;;;;4.17;1.10;;;11.30;99.90;;;;;;5039484;28;20456;-84
2022/12/28 10:48:17;;;;;;;7.27;1.47;;;11.40;99.90;;;;;;5039878;28;20459;-84
2022/12/28 10:57:47;;;;;;;4.43;1.30;;;11.50;99.90;;;;;;5027831;28;20985;-84
2022/12/28 11:00:20;;;;;;;4.37;1.40;;;11.40;99.90;;;;;;5042797;28;20469;-83
2022/12/28 11:02:47;;;;;;;4.90;1.33;;;11.50;99.90;;;;;;5042765;28;20459;-82
2022/12/28 11:06:01;;;;;;;3.80;1.40;;;11.50;99.90;;;;;;5042763;28;20448;-84
2022/12/28 11:08:28;;;;;;;11.10;1.57;;;11.50;99.90;;;;;;5008421;28;20441;-84
2022/12/28 11:10:57;;;;;;;7.43;1.47;;;11.50;99.90;;;;;;5022287;28;20511;-83
2022/12/28 11:14:23;;;;;;;4.27;1.30;;;11.60;99.90;;;;;;5041984;28;20474;-83
2022/12/28 11:16:52;;;;;;;5.37;1.40;;;11.60;99.90;;;;;;5023332;28;20552;-83
2022/12/28 11:19:19;;;;;;;5.60;1.47;;;11.60;99.90;;;;;;5026903;28;20468;-83
2022/12/28 11:21:46;;;;;;;4.20;1.33;;;11.60;99.90;;;;;;5041742;28;20452;-84
2022/12/28 11:27:22;;;;;;;5.53;1.40;;;11.60;99.90;;;;;;5040896;28;20486;-83
2022/12/28 11:29:51;;;;;;;4.50;1.10;;;11.70;99.90;;;;;;5041998;28;20440;-83
2022/12/28 11:32:24;;;;;;;4.73;1.50;;;11.70;99.90;;;;;;5042390;28;20446;-84
2022/12/28 11:34:52;;;;;;;5.90;1.27;;;11.70;99.90;;;;;;5042690;28;20471;-83
2022/12/28 11:37:19;;;;;;;4.70;1.20;;;11.70;99.90;;;;;;5042729;28;20538;-86
2022/12/28 11:40:42;;;;;;;4.47;1.40;;;11.60;99.90;;;;;;5040821;28;20559;-83
2022/12/28 11:43:47;;;;;;;5.82;1.48;;;11.50;99.90;;;;;;5022815;28;20451;-84
2022/12/28 11:46:37;;;;;;;7.63;1.50;;;11.40;99.90;;;;;;5044264;28;20204;-84
2022/12/28 11:49:21;;;;;;;4.50;1.80;;;11.40;99.90;;;;;;5044029;28;20471;-84
2022/12/28 11:52:05;;;;;;;4.53;1.40;;;11.30;99.90;;;;;;5042644;28;20445;-86
2022/12/28 11:54:37;;;;;;;7.45;1.60;;;11.20;99.90;;;;;;5043341;28;20456;-84
2022/12/28 11:57:04;;;;;;;4.13;1.40;;;11.10;99.90;;;;;;5043261;28;20580;-85
2022/12/28 12:02:56;;;;;;;3.47;1.33;;;11.10;99.90;;;;;;4984167;28;20462;-85
2022/12/28 12:05:59;;;;;;;4.23;1.50;;;11.10;99.90;;;;;;4970939;28;20464;-83
2022/12/28 12:11:53;;;;;;;4.70;1.33;;;11.10;99.90;;;;;;4922611;29;20448;-85
2022/12/28 12:30:55;;;;;;;4.90;1.93;;;11.10;99.90;;;;;;4759373;30;20519;-85
2022/12/28 12:33:42;;;;;;;5.23;1.73;;;11.00;99.90;;;;;;4833566;29;20490;-86
2022/12/28 12:36:37;;;;;;;5.20;1.80;;;10.90;99.90;;;;;;4962926;28;20455;-85
2022/12/28 12:39:25;;;;;;;4.30;1.50;;;10.90;99.90;;;;;;4957939;28;20479;-86
2022/12/28 12:55:22;;;;;;;5.10;1.33;;;10.80;99.90;;;;;;4980505;28;21179;-85
2022/12/28 12:57:57;;;;;;;8.23;1.40;;;10.80;99.90;;;;;;5045385;28;20457;-85
2022/12/28 13:00:28;;;;;;;5.23;1.57;;;10.70;99.90;;;;;;5028101;28;20811;-85
2022/12/28 13:03:24;;;;;;;5.67;1.83;;;10.60;99.90;;;;;;5029458;28;20508;-85
2022/12/28 13:09:16;;;;;;;4.90;1.20;;;10.60;99.90;;;;;;4970015;28;20474;-85
2022/12/28 13:11:52;;;;;;;5.73;1.30;;;10.60;99.90;;;;;;4987248;28;20475;-86
2022/12/28 13:18:28;;;;;;;4.53;2.00;;;10.60;99.90;;;;;;5021352;28;20456;-85
2022/12/28 13:20:59;;;;;;;4.07;1.40;;;10.50;99.90;;;;;;4980595;28;20476;-86
2022/12/28 13:23:27;;;;;;;4.67;1.43;;;10.40;99.90;;;;;;5030244;28;20595;-85
2022/12/28 13:25:58;;;;;;;4.27;1.50;;;10.50;99.90;;;;;;5022526;28;20445;-85
2022/12/28 13:28:29;;;;;;;6.60;1.43;;;10.50;99.90;;;;;;5025819;28;20459;-82
2022/12/28 13:31:04;;;;;;;4.00;1.63;;;10.50;99.90;;;;;;5040090;28;20460;-79
2022/12/28 13:33:31;;;;;;;4.13;1.27;;;10.60;99.90;;;;;;5036393;28;20471;-85
2022/12/28 13:36:19;;;;;;;4.30;1.60;;;10.50;99.90;;;;;;5019167;28;20445;-83
2022/12/28 13:38:46;;;;;;;3.60;1.10;;;10.50;99.90;;;;;;5021699;28;20465;-83
2022/12/28 13:41:23;;;;;;;5.40;1.40;;;10.50;99.90;;;;;;5030988;28;20533;-82
2022/12/28 13:44:15;;;;;;;4.67;1.40;;;10.60;99.90;;;;;;5029895;28;20477;-84
2022/12/28 13:46:49;;;;;;;4.80;1.70;;;10.50;99.90;;;;;;5022480;28;20457;-84
2022/12/28 13:49:17;;;;;;;3.50;1.00;;;10.70;99.90;;;;;;5032266;28;20476;-83
2022/12/28 13:51:44;;;;;;;4.50;1.53;;;10.60;99.90;;;;;;5034246;28;20828;-83
2022/12/28 13:54:11;;;;;;;5.00;1.63;;;10.60;99.90;;;;;;5021957;28;20480;-83
2022/12/28 13:56:42;;;;;;;9.80;1.40;;;10.50;99.90;;;;;;5027144;28;20459;-85
2022/12/28 13:59:13;;;;;;;10.37;2.00;;;10.50;99.90;;;;;;5024831;28;20481;-83
2022/12/28 14:01:43;;;;;;;5.63;1.60;;;10.40;99.90;;;;;;5022229;28;20822;-83
2022/12/28 14:04:19;;;;;;;5.80;1.40;;;10.40;99.90;;;;;;5021790;28;20532;-82
2022/12/28 14:17:09;;;;;;;4.30;1.47;;;10.50;99.90;;;;;;4790897;29;20922;-85
2022/12/28 14:19:37;;;;;;;4.00;1.30;;;10.50;99.90;;;;;;4870401;29;20520;-85
2022/12/28 14:22:26;;;;;;;4.90;1.60;;;10.40;99.90;;;;;;4948771;29;20458;-85
2022/12/28 14:24:59;;;;;;;8.57;2.20;;;10.40;99.90;;;;;;4942995;29;20472;-83
2022/12/28 14:27:26;;;;;;;8.40;1.90;;;10.40;99.90;;;;;;4942247;29;20875;-85
2022/12/28 14:29:55;;;;;;;4.47;2.00;;;10.40;99.90;;;;;;4963225;28;20444;-84
2022/12/28 14:32:56;;;;;;;4.63;1.93;;;10.40;99.90;;;;;;5042916;28;21023;-83
2022/12/28 14:35:25;;;;;;;4.23;1.60;;;10.40;99.90;;;;;;5037698;28;20448;-85
2022/12/28 14:37:56;;;;;;;7.00;1.70;;;10.30;99.90;;;;;;5024157;28;20461;-86
2022/12/28 14:40:30;;;;;;;10.10;1.70;;;10.30;99.90;;;;;;5028140;28;20476;-85
2022/12/28 14:42:57;;;;;;;4.43;1.43;;;10.30;99.90;;;;;;5043415;28;20468;-85
2022/12/28 14:45:37;;;;;;;4.97;1.30;;;10.30;99.90;;;;;;5029202;28;20457;-85
2022/12/28 14:48:23;;;;;;;4.23;1.40;;;10.30;99.90;;;;;;5023203;28;20964;-85
2022/12/28 14:50:57;;;;;;;7.70;1.50;;;10.30;99.90;;;;;;5035252;28;20447;-85
2022/12/28 14:53:26;;;;;;;7.33;1.50;;;10.30;99.90;;;;;;5041764;28;20467;-85
2022/12/28 14:55:58;;;;;;;5.50;1.27;;;10.30;99.90;;;;;;5042945;28;20451;-86
2022/12/28 14:58:28;;;;;;;3.70;1.37;;;10.30;99.90;;;;;;5039088;28;20448;-86
2022/12/28 15:00:57;;;;;;;8.00;1.40;;;10.30;99.90;;;;;;5040882;28;20472;-85
2022/12/28 15:03:27;;;;;;;6.00;1.40;;;10.20;99.90;;;;;;5035135;28;20552;-84
2022/12/28 15:05:55;;;;;;;5.87;1.43;;;10.20;99.90;;;;;;5035401;28;20448;-84
2022/12/28 15:08:22;;;;;;;3.70;1.40;;;10.30;99.90;;;;;;5036570;28;20457;-84
2022/12/28 15:10:52;;;;;;;5.37;1.50;;;10.20;99.90;;;;;;5023329;28;20456;-85
2022/12/28 15:13:21;;;;;;;6.13;1.50;;;10.20;99.90;;;;;;5041833;28;20475;-86
2022/12/28 15:15:55;;;;;;;4.10;1.63;;;10.30;99.90;;;;;;5042414;28;20957;-86
2022/12/28 15:18:33;;;;;;;4.23;1.70;;;10.20;99.90;;;;;;5023409;28;20460;-84
2022/12/28 15:21:03;;;;;;;4.10;2.03;;;10.20;99.90;;;;;;5029064;28;20476;-86
2022/12/28 15:23:30;;;;;;;4.90;1.53;;;10.30;99.90;;;;;;5042296;28;20472;-85
2022/12/28 15:25:58;;;;;;;5.03;1.80;;;10.40;99.90;;;;;;5042400;28;20448;-85
2022/12/28 15:28:25;;;;;;;6.60;1.80;;;10.30;99.90;;;;;;5039789;28;20452;-85
2022/12/28 15:31:03;;;;;;;6.30;2.80;;;10.30;99.90;;;;;;5021848;28;20458;-84
2022/12/28 15:33:30;;;;;;;4.37;1.50;;;10.30;99.90;;;;;;5039908;28;20851;-84
2022/12/28 15:36:02;;;;;;;4.50;1.13;;;10.30;99.90;;;;;;5037461;28;20834;-82
2022/12/28 15:38:28;;;;;;;4.23;1.50;;;10.30;99.90;;;;;;5021945;28;20449;-82
2022/12/28 15:40:55;;;;;;;4.00;1.60;;;10.30;99.90;;;;;;5024894;28;20504;-82
2022/12/28 15:43:23;;;;;;;4.03;1.40;;;10.30;99.90;;;;;;5042027;28;20851;-83
2022/12/28 15:45:53;;;;;;;3.70;1.33;;;10.40;99.90;;;;;;5039885;28;20453;-82
2022/12/28 15:48:20;;;;;;;5.70;1.63;;;10.40;99.90;;;;;;5022191;28;20460;-83
2022/12/28 15:50:47;;;;;;;6.80;1.70;;;10.40;99.90;;;;;;5024583;28;20449;-82